Houghton County Memorial Airport
KCMX : now visible

Airfield :











YOU CAN JOIN US ON...

 
LOGIN :

Register | Disclaimer

   EN    FR    IT 

 









Legend :    VFR   Marginal VFR   IFR   Intensive IFR   Very Intensive IFR
Visi :
Ceiling :
>= 8 km
>= 3000ft
5 to 8 km
1000 to 3000 ft
1500m to 5 km
500 to 1000 ft
800 to 1500m
200 to 500 ft
< 800m
< 200 ft
Symbols :   Thunderstorms  Fog  Heavy snow  Heavy precipitations  Wind > 20 kt






- Airport Elevation : 1095 ft
- IATA code : CMX


KCMX - Houghton County Memorial

CURRENT METAR :
  • 260433Z AUTO 34012KT 1 3/4SM -SN BR SCT008 OVC014 M01/M03 A2979 RMK AO2 P0000 T10111033 $

EXPIRED METARs :
  • 260409Z AUTO 33010KT 1 1/4SM -SN BR BKN007 BKN011 OVC015 M01/M03 A2979 RMK AO2 P0000 T10111033 $
  • 260353Z AUTO 34014KT 1 1/2SM -SN BR SCT007 OVC015 M01/M03 A2979 RMK AO2 SLP100 P0000 T10111033 $
  • 260300Z AUTO 36011G18KT 1 3/4SM -SN BR OVC006 M01/M03 A2979 RMK AO2 P0000 T10111033 $
  • 260244Z AUTO 35009KT 3SM -SN BR OVC006 M01/M03 A2979 RMK AO2 P0000 T10061028 $
  • 260228Z AUTO 35009KT 2SM -SN BR OVC007 M01/M03 A2979 RMK AO2 P0000 T10061028 $
  • 260218Z AUTO 34009KT 3SM -SN BR OVC007 M01/M03 A2979 RMK AO2 P0000 T10061028 $
  • 260203Z AUTO 34010KT 2 1/2SM -SN BR OVC007 M01/M03 A2979 RMK AO2 P0000 T10061028 $
  • 260153Z AUTO 34010KT 1 1/2SM -SN BR BKN006 OVC011 M01/M03 A2979 RMK AO2 SLP102 P0000 T10061028 $

TAF KCMX
Valid from the 26 at 00:00 until the 27 at 00:00 UTC


252325Z 2600/2624 34008KT 1 1/2SM -SHSN BR OVC003
FM260800 33011KT 2SM -SHSN BR OVC006
FM261600 34010KT 1 1/2SM -SHSN BR OVC007
FM262200 35009KT 3SM BR OVC008



MET'MAP, your aeronautical weather chart ! - Copyright ORBIFLY December 2007 - Disclaimer

ORBIFLY MET'MAP TEAM :

Programming & Development : Alexandra Zaïnal
Concept & original design : Baudouin d'Aumeries
Assistance for programming : Marc-Olivier Méhu
Technical & hardware support : Manuel Goepfert

Contact : metmap@orbifly.com




SOURCES & CREDITS :

   NOAA       Earth
Advisory